createdAt,value
2023-09-13T00:00:28.781Z,18.26
2023-09-13T00:02:59.179Z,18.30
2023-09-13T00:05:26.365Z,18.34
2023-09-13T00:07:53.472Z,18.42
2023-09-13T00:10:22.944Z,18.40
2023-09-13T00:12:50.086Z,18.40
2023-09-13T00:15:17.204Z,18.39
2023-09-13T00:17:44.354Z,18.42
2023-09-13T00:20:15.048Z,18.46
2023-09-13T00:22:42.289Z,18.50
2023-09-13T00:25:12.739Z,18.50
2023-09-13T00:27:40.295Z,18.53
2023-09-13T00:30:12.487Z,18.52
2023-09-13T00:32:42.054Z,18.54
2023-09-13T00:35:09.624Z,18.49
2023-09-13T00:37:36.681Z,18.47
2023-09-13T00:40:06.390Z,18.46
2023-09-13T00:42:34.881Z,18.46
2023-09-13T00:45:07.022Z,18.45
2023-09-13T00:47:35.246Z,18.45
2023-09-13T00:50:04.486Z,18.38
2023-09-13T00:52:31.634Z,18.42
2023-09-13T00:54:59.775Z,18.45
2023-09-13T00:57:27.368Z,18.48
2023-09-13T00:59:54.653Z,18.49
2023-09-13T01:02:24.859Z,18.53
2023-09-13T01:04:52.259Z,18.56
2023-09-13T01:07:32.230Z,18.50
2023-09-13T01:10:00.205Z,18.43
2023-09-13T01:12:27.385Z,18.48
2023-09-13T01:14:54.567Z,18.49
2023-09-13T01:17:46.226Z,18.55
2023-09-13T01:20:52.465Z,18.42
2023-09-13T01:23:34.738Z,18.48
2023-09-13T01:26:23.152Z,18.39
2023-09-13T01:28:52.750Z,18.34
2023-09-13T01:31:22.647Z,18.33
2023-09-13T01:33:50.199Z,18.34
2023-09-13T01:36:17.688Z,18.28
2023-09-13T01:38:47.284Z,18.28
2023-09-13T01:42:13.095Z,18.31
2023-09-13T01:44:43.810Z,18.37
2023-09-13T01:47:15.839Z,18.30
2023-09-13T01:49:47.159Z,18.27
2023-09-13T01:52:14.362Z,18.30
2023-09-13T01:54:43.155Z,18.33
2023-09-13T01:57:10.233Z,18.34
2023-09-13T01:59:37.773Z,18.38
2023-09-13T02:02:06.003Z,18.31
2023-09-13T02:04:34.857Z,18.18
2023-09-13T02:07:05.307Z,18.16
2023-09-13T02:09:32.497Z,18.19
2023-09-13T02:11:59.749Z,18.11
2023-09-13T02:14:26.874Z,18.11
2023-09-13T02:16:54.050Z,18.13
2023-09-13T02:19:30.257Z,18.12
2023-09-13T02:21:57.448Z,18.10
2023-09-13T02:24:28.265Z,18.10
2023-09-13T02:26:57.570Z,18.09
2023-09-13T02:29:25.295Z,18.09
2023-09-13T02:31:52.721Z,18.03
2023-09-13T02:34:20.867Z,18.00
2023-09-13T02:36:49.490Z,18.04
2023-09-13T02:39:37.394Z,17.96
2023-09-13T02:42:06.376Z,17.98
2023-09-13T02:44:34.927Z,17.99
2023-09-13T02:47:03.093Z,17.99
2023-09-13T02:49:30.395Z,17.92
2023-09-13T02:51:57.644Z,17.91
2023-09-13T02:54:26.062Z,17.87
2023-09-13T02:56:58.774Z,17.90
2023-09-13T02:59:29.406Z,17.87
2023-09-13T03:01:56.631Z,17.92
2023-09-13T03:04:26.441Z,17.94
2023-09-13T03:06:57.619Z,17.90
2023-09-13T03:09:24.790Z,17.91
2023-09-13T03:11:52.062Z,17.90
2023-09-13T03:14:19.389Z,17.91
2023-09-13T03:16:52.418Z,17.94
2023-09-13T03:19:19.992Z,17.90
2023-09-13T03:21:47.202Z,17.90
2023-09-13T03:24:14.454Z,17.94
2023-09-13T03:26:41.911Z,17.98
2023-09-13T03:29:11.482Z,17.94
2023-09-13T03:31:39.958Z,17.94
2023-09-13T03:34:11.694Z,17.97
2023-09-13T03:36:38.996Z,17.86
2023-09-13T03:39:06.531Z,17.90
2023-09-13T03:41:35.062Z,17.86
2023-09-13T03:44:04.802Z,17.83
2023-09-13T03:46:32.577Z,17.85
2023-09-13T03:49:01.802Z,17.85
2023-09-13T03:51:29.260Z,17.85
2023-09-13T03:53:59.469Z,17.84
2023-09-13T03:56:27.363Z,17.88
2023-09-13T03:58:55.870Z,17.82
2023-09-13T04:01:23.451Z,17.89
2023-09-13T04:03:51.325Z,17.93
2023-09-13T04:06:19.646Z,17.94
2023-09-13T04:08:47.020Z,17.85
2023-09-13T04:11:14.318Z,17.86
2023-09-13T04:13:41.985Z,17.82
2023-09-13T04:16:09.953Z,17.78
2023-09-13T04:18:37.720Z,17.84
2023-09-13T04:21:06.285Z,17.79
2023-09-13T04:23:36.480Z,17.71
2023-09-13T04:26:05.133Z,17.73
2023-09-13T04:28:33.967Z,17.66
2023-09-13T04:31:02.409Z,17.66
2023-09-13T04:34:06.404Z,17.66
2023-09-13T04:36:41.547Z,17.63
2023-09-13T04:39:09.290Z,17.65
2023-09-13T04:41:36.562Z,17.65
2023-09-13T04:44:03.836Z,17.67
2023-09-13T04:46:32.500Z,17.69
2023-09-13T04:48:59.862Z,17.70
2023-09-13T04:51:27.631Z,17.66
2023-09-13T04:53:55.133Z,17.71
2023-09-13T04:56:22.249Z,17.76
2023-09-13T04:58:52.565Z,17.69
2023-09-13T05:01:19.845Z,17.57
2023-09-13T05:03:50.853Z,17.71
2023-09-13T05:06:20.226Z,17.73
2023-09-13T05:08:48.171Z,17.69
2023-09-13T05:11:15.178Z,17.71
2023-09-13T05:13:43.613Z,17.70
2023-09-13T05:16:14.456Z,17.79
2023-09-13T05:18:44.563Z,17.75
2023-09-13T05:21:11.701Z,17.78
2023-09-13T05:23:39.259Z,17.64
2023-09-13T05:26:06.491Z,17.56
2023-09-13T05:28:35.434Z,17.70
2023-09-13T05:31:02.990Z,17.76
2023-09-13T05:33:30.632Z,17.84
2023-09-13T05:35:57.808Z,17.84
2023-09-13T05:38:26.278Z,17.83
2023-09-13T05:40:53.564Z,17.82
2023-09-13T05:43:23.556Z,17.77
2023-09-13T05:45:51.914Z,17.82
2023-09-13T05:48:22.505Z,17.77
2023-09-13T05:50:55.293Z,17.79
2023-09-13T05:53:23.760Z,17.76
2023-09-13T05:55:51.399Z,17.77
2023-09-13T05:58:19.274Z,17.90
2023-09-13T06:00:50.719Z,17.91
2023-09-13T06:03:19.179Z,17.97
2023-09-13T06:05:52.596Z,18.02
2023-09-13T06:08:20.015Z,18.09
2023-09-13T06:10:47.567Z,18.18
2023-09-13T06:13:16.685Z,18.16
2023-09-13T06:15:44.255Z,18.17
2023-09-13T06:18:11.593Z,18.11
2023-09-13T06:20:39.149Z,18.23
2023-09-13T06:23:06.428Z,18.20
2023-09-13T06:25:33.698Z,18.17
2023-09-13T06:28:04.249Z,18.18
2023-09-13T06:30:31.490Z,18.19
2023-09-13T06:33:11.626Z,18.16
2023-09-13T06:35:39.951Z,18.14
2023-09-13T06:38:07.467Z,18.12
2023-09-13T06:40:36.805Z,18.14
2023-09-13T06:43:04.599Z,18.16
2023-09-13T06:45:32.078Z,18.18
2023-09-13T06:48:00.308Z,18.24
2023-09-13T06:55:34.728Z,18.46
2023-09-13T06:58:07.479Z,18.62
2023-09-13T07:00:47.613Z,18.67
2023-09-13T07:03:26.809Z,18.74
2023-09-13T07:05:54.630Z,18.84
2023-09-13T07:08:21.722Z,18.84
2023-09-13T07:10:49.077Z,18.89
2023-09-13T07:13:16.524Z,19.07
2023-09-13T07:15:43.620Z,19.15
2023-09-13T07:18:10.888Z,19.11
2023-09-13T07:20:38.013Z,19.23
2023-09-13T07:23:05.557Z,19.35
2023-09-13T07:25:33.302Z,19.39
2023-09-13T07:28:01.505Z,19.44
2023-09-13T07:30:29.367Z,19.34
2023-09-13T07:32:56.586Z,19.25
2023-09-13T07:35:24.902Z,19.22
2023-09-13T07:37:52.667Z,19.10
2023-09-13T07:40:19.864Z,19.01
2023-09-13T07:42:46.876Z,19.00
2023-09-13T07:45:13.916Z,18.96
2023-09-13T07:47:41.046Z,18.91
2023-09-13T07:50:28.602Z,18.99
2023-09-13T07:53:05.270Z,18.95
2023-09-13T07:55:33.335Z,19.03
2023-09-13T07:58:00.777Z,19.10
2023-09-13T08:00:28.010Z,19.07
2023-09-13T08:02:55.362Z,19.16
2023-09-13T08:05:22.636Z,19.29
2023-09-13T08:07:49.989Z,19.46
2023-09-13T08:10:17.209Z,19.38
2023-09-13T08:12:44.464Z,19.31
2023-09-13T08:15:11.657Z,19.35
2023-09-13T08:17:38.790Z,19.51
2023-09-13T08:20:08.739Z,19.75
2023-09-13T08:22:40.341Z,19.90
2023-09-13T08:25:12.702Z,19.63
2023-09-13T08:27:40.062Z,19.65
2023-09-13T08:30:27.988Z,19.74
2023-09-13T08:32:55.241Z,19.76
2023-09-13T08:35:22.361Z,19.76
2023-09-13T08:37:50.623Z,19.80
2023-09-13T08:40:17.929Z,19.66
2023-09-13T08:42:46.691Z,19.64
2023-09-13T08:45:14.810Z,19.53
2023-09-13T08:47:57.931Z,19.49
2023-09-13T08:50:28.673Z,19.43
2023-09-13T08:53:00.144Z,19.59
2023-09-13T08:55:28.919Z,19.65
2023-09-13T08:57:57.821Z,19.78
2023-09-13T09:00:28.953Z,19.83
2023-09-13T09:03:04.381Z,20.23
2023-09-13T09:05:33.796Z,20.63
2023-09-13T09:08:04.409Z,20.82
2023-09-13T09:10:33.164Z,21.14
2023-09-13T09:13:01.659Z,21.39
2023-09-13T09:15:29.431Z,21.22
2023-09-13T09:18:00.302Z,21.22
2023-09-13T09:20:29.779Z,21.13
2023-09-13T09:22:59.999Z,21.77
2023-09-13T09:25:27.549Z,21.73
2023-09-13T09:27:55.155Z,21.33
2023-09-13T09:30:35.921Z,21.20
2023-09-13T09:33:08.287Z,21.04
2023-09-13T09:35:39.060Z,21.84
2023-09-13T09:38:22.107Z,21.92
2023-09-13T09:40:50.712Z,22.41
2023-09-13T09:43:18.168Z,22.09
2023-09-13T09:45:45.511Z,21.89
2023-09-13T09:48:13.077Z,21.61
2023-09-13T09:50:40.671Z,21.47
2023-09-13T09:53:12.401Z,21.73
2023-09-13T09:55:39.624Z,21.61
2023-09-13T09:58:06.990Z,21.93
2023-09-13T10:00:54.995Z,22.45
2023-09-13T10:03:24.120Z,22.66
2023-09-13T10:05:56.696Z,22.83
2023-09-13T10:08:48.529Z,23.10
2023-09-13T10:11:22.584Z,23.29
2023-09-13T10:13:50.657Z,23.05
2023-09-13T10:16:21.990Z,23.14
2023-09-13T10:19:04.122Z,23.15
2023-09-13T10:21:32.462Z,23.68
2023-09-13T10:24:06.232Z,24.17
2023-09-13T10:26:34.585Z,24.54
2023-09-13T10:29:14.105Z,23.98
2023-09-13T10:31:45.957Z,23.79
2023-09-13T10:34:23.723Z,24.15
2023-09-13T10:36:57.363Z,23.86
2023-09-13T10:39:31.292Z,24.03
2023-09-13T10:42:05.759Z,24.18
2023-09-13T10:44:35.653Z,24.54
2023-09-13T10:47:05.345Z,24.73
2023-09-13T10:49:32.952Z,24.75
2023-09-13T10:52:01.131Z,24.55
2023-09-13T10:54:30.075Z,24.65
2023-09-13T10:56:57.823Z,24.95
2023-09-13T10:59:27.079Z,25.22
2023-09-13T11:01:55.003Z,24.87
2023-09-13T11:04:25.089Z,23.81
2023-09-13T11:06:54.939Z,24.63
2023-09-13T11:09:28.345Z,24.82
2023-09-13T11:11:59.129Z,24.46
2023-09-13T11:14:37.480Z,23.92
2023-09-13T11:17:35.678Z,23.41
2023-09-13T11:20:21.856Z,23.42
2023-09-13T11:23:03.198Z,24.01
2023-09-13T11:25:58.666Z,24.28
2023-09-13T11:28:38.459Z,24.34
2023-09-13T11:31:10.256Z,24.20
2023-09-13T11:33:51.809Z,24.03
2023-09-13T11:36:19.470Z,23.95
2023-09-13T11:39:13.060Z,23.89
2023-09-13T11:44:26.828Z,24.82
2023-09-13T11:46:58.392Z,25.44
2023-09-13T11:49:37.399Z,25.09
2023-09-13T11:55:05.307Z,24.27
2023-09-13T11:57:58.953Z,24.07
2023-09-13T12:00:31.672Z,24.03
2023-09-13T12:03:01.026Z,24.12
2023-09-13T12:05:41.345Z,24.31
2023-09-13T12:08:39.283Z,24.47
2023-09-13T12:11:12.853Z,24.10
2023-09-13T12:16:21.664Z,24.86
2023-09-13T12:18:48.862Z,25.48
2023-09-13T12:21:16.296Z,25.28
2023-09-13T12:23:47.699Z,25.28
2023-09-13T12:26:19.457Z,24.52
2023-09-13T12:28:53.592Z,24.24
2023-09-13T12:31:22.692Z,24.15
2023-09-13T12:33:52.657Z,23.98
2023-09-13T12:36:20.332Z,23.79
2023-09-13T12:39:16.795Z,23.73
2023-09-13T12:41:52.979Z,23.73
2023-09-13T12:44:21.412Z,23.80
2023-09-13T12:46:50.366Z,23.89
2023-09-13T12:49:17.676Z,23.72
2023-09-13T12:51:44.943Z,23.36
2023-09-13T12:54:15.981Z,22.92
2023-09-13T12:56:43.155Z,23.03
2023-09-13T12:59:10.957Z,23.10
2023-09-13T13:01:38.625Z,22.95
2023-09-13T13:04:08.903Z,23.19
2023-09-13T13:07:03.824Z,22.94
2023-09-13T13:09:31.368Z,23.01
2023-09-13T13:11:58.768Z,22.68
2023-09-13T13:14:30.847Z,22.62
2023-09-13T13:17:00.107Z,22.85
2023-09-13T13:19:33.096Z,22.60
2023-09-13T13:22:11.812Z,22.37
2023-09-13T13:24:40.825Z,22.32
2023-09-13T13:27:08.283Z,22.64
2023-09-13T13:29:37.061Z,22.41
2023-09-13T13:32:05.683Z,22.45
2023-09-13T13:34:33.120Z,22.56
2023-09-13T13:37:00.377Z,22.45
2023-09-13T13:39:29.680Z,22.38
2023-09-13T13:41:56.943Z,21.89
2023-09-13T13:44:24.141Z,22.24
2023-09-13T13:46:51.375Z,22.23
2023-09-13T13:49:19.855Z,22.14
2023-09-13T13:51:51.944Z,22.15
2023-09-13T13:54:20.352Z,22.25
2023-09-13T13:56:48.067Z,22.39
2023-09-13T13:59:16.157Z,22.43
2023-09-13T14:01:43.613Z,22.17
2023-09-13T14:04:10.945Z,22.00
2023-09-13T14:06:38.314Z,21.95
2023-09-13T14:09:05.844Z,22.19
2023-09-13T14:11:34.991Z,22.38
2023-09-13T14:14:02.362Z,22.02
2023-09-13T14:16:29.519Z,21.92
2023-09-13T14:18:56.834Z,21.60
2023-09-13T14:21:23.929Z,21.83
2023-09-13T14:23:51.257Z,21.84
2023-09-13T14:26:18.339Z,21.88
2023-09-13T14:28:45.405Z,21.68
2023-09-13T14:31:15.458Z,21.64
2023-09-13T14:33:44.552Z,21.60
2023-09-13T14:36:12.010Z,21.60
2023-09-13T14:38:39.285Z,21.32
2023-09-13T14:41:06.411Z,21.09
2023-09-13T14:43:33.862Z,20.93
2023-09-13T14:46:01.348Z,20.90
2023-09-13T14:48:29.025Z,21.16
2023-09-13T14:50:56.237Z,21.28
2023-09-13T14:53:23.349Z,21.39
2023-09-13T14:55:59.365Z,21.26
2023-09-13T14:58:30.253Z,21.30
2023-09-13T15:00:57.510Z,21.25
2023-09-13T15:03:24.815Z,21.38
2023-09-13T15:05:52.022Z,21.41
2023-09-13T15:08:19.188Z,21.30
2023-09-13T15:10:46.451Z,21.34
2023-09-13T15:13:13.666Z,21.21
2023-09-13T15:15:44.305Z,21.28
2023-09-13T15:18:11.778Z,21.19
2023-09-13T15:20:39.084Z,21.08
2023-09-13T15:23:06.466Z,21.23
2023-09-13T15:25:33.771Z,21.01
2023-09-13T15:28:01.245Z,20.88
2023-09-13T15:30:28.606Z,20.54
2023-09-13T15:32:55.776Z,20.62
2023-09-13T15:35:27.149Z,20.32
2023-09-13T15:37:54.395Z,20.52
2023-09-13T15:40:25.142Z,20.55
2023-09-13T15:42:57.970Z,20.32
2023-09-13T15:45:26.509Z,20.35
2023-09-13T15:47:53.740Z,20.36
2023-09-13T15:50:21.021Z,20.19
2023-09-13T15:52:48.132Z,20.38
2023-09-13T15:55:15.382Z,20.33
2023-09-13T15:57:46.237Z,20.38
2023-09-13T16:00:13.707Z,20.35
2023-09-13T16:02:42.011Z,20.35
2023-09-13T16:05:09.506Z,20.41
2023-09-13T16:07:39.975Z,20.36
2023-09-13T16:10:08.841Z,20.22
2023-09-13T16:12:36.764Z,20.22
2023-09-13T16:18:07.701Z,20.13
2023-09-13T16:20:36.551Z,20.11
2023-09-13T16:23:05.896Z,19.95
2023-09-13T16:25:35.578Z,19.82
2023-09-13T16:28:02.804Z,19.83
2023-09-13T16:30:29.667Z,19.73
2023-09-13T16:33:24.250Z,19.67
2023-09-13T16:36:14.510Z,19.61
2023-09-13T16:38:41.482Z,19.42
2023-09-13T16:41:08.367Z,19.44
2023-09-13T16:43:35.144Z,19.32
2023-09-13T16:46:02.535Z,19.40
2023-09-13T16:48:35.098Z,19.39
2023-09-13T16:51:04.332Z,19.38
2023-09-13T16:53:36.607Z,19.33
2023-09-13T16:56:03.881Z,19.39
2023-09-13T16:58:30.746Z,19.32
2023-09-13T17:00:58.547Z,19.31
2023-09-13T17:03:26.126Z,19.22
2023-09-13T17:05:53.306Z,19.14
2023-09-13T17:08:20.079Z,19.02
2023-09-13T17:17:22.938Z,18.86
2023-09-13T17:19:52.827Z,18.71
2023-09-13T17:22:19.932Z,18.70
2023-09-13T17:24:47.611Z,18.59
2023-09-13T17:27:16.768Z,18.52
2023-09-13T17:29:45.093Z,18.38
2023-09-13T17:32:12.880Z,18.43
2023-09-13T17:34:40.576Z,18.41
2023-09-13T17:37:08.936Z,18.24
2023-09-13T17:39:38.516Z,18.30
2023-09-13T17:42:06.838Z,18.37
2023-09-13T17:44:37.347Z,18.26
2023-09-13T17:47:04.854Z,18.08
2023-09-13T17:49:32.344Z,17.94
2023-09-13T17:51:59.578Z,17.92
2023-09-13T17:54:29.100Z,17.99
2023-09-13T17:57:04.274Z,17.95
2023-09-13T17:59:33.338Z,17.93
2023-09-13T18:02:00.852Z,17.77
2023-09-13T18:04:29.336Z,17.59
2023-09-13T18:06:59.086Z,17.49
2023-09-13T18:09:26.968Z,17.47
2023-09-13T18:11:56.356Z,17.46
2023-09-13T18:14:23.777Z,17.29
2023-09-13T18:16:53.144Z,17.09
2023-09-13T18:19:22.040Z,17.20
2023-09-13T18:21:49.469Z,17.04
2023-09-13T18:24:22.882Z,17.06
2023-09-13T18:26:57.785Z,17.06
2023-09-13T18:29:25.552Z,17.10
2023-09-13T18:32:01.043Z,16.91
2023-09-13T18:34:29.992Z,16.92
2023-09-13T18:36:57.135Z,16.93
2023-09-13T18:39:27.977Z,16.81
2023-09-13T18:41:56.663Z,16.76
2023-09-13T18:44:27.280Z,16.68
2023-09-13T18:47:01.174Z,16.67
2023-09-13T18:49:32.484Z,16.84
2023-09-13T18:51:59.962Z,16.69
2023-09-13T18:54:27.729Z,16.77
2023-09-13T18:56:54.821Z,16.86
2023-09-13T18:59:25.128Z,16.76
2023-09-13T19:01:53.329Z,16.85
2023-09-13T19:04:22.677Z,16.93
2023-09-13T19:07:08.256Z,16.74
2023-09-13T19:09:39.968Z,16.81
2023-09-13T19:12:08.623Z,16.80
2023-09-13T19:14:36.736Z,16.79
2023-09-13T19:17:04.696Z,16.67
2023-09-13T19:19:34.053Z,16.57
2023-09-13T19:22:02.023Z,16.69
2023-09-13T19:24:38.799Z,16.62
2023-09-13T19:27:10.886Z,16.62
2023-09-13T19:29:38.738Z,16.72
2023-09-13T19:32:06.308Z,16.70
2023-09-13T19:34:34.771Z,16.46
2023-09-13T19:37:02.956Z,16.47
2023-09-13T19:39:30.585Z,16.51
2023-09-13T19:41:57.703Z,16.53
2023-09-13T19:44:25.177Z,16.52
2023-09-13T19:46:52.277Z,16.28
2023-09-13T19:49:19.449Z,16.61
2023-09-13T19:51:46.777Z,16.42
2023-09-13T19:54:13.949Z,16.53
2023-09-13T19:56:41.555Z,16.39
2023-09-13T19:59:08.707Z,16.33
2023-09-13T20:01:35.832Z,16.38
2023-09-13T20:04:03.220Z,16.19
2023-09-13T20:06:34.646Z,16.11
2023-09-13T20:09:04.089Z,16.17
2023-09-13T20:11:31.793Z,16.22
2023-09-13T20:14:00.126Z,16.19
2023-09-13T20:16:31.018Z,16.27
2023-09-13T20:18:58.355Z,16.34
2023-09-13T20:21:26.115Z,16.42
2023-09-13T20:23:53.399Z,16.50
2023-09-13T20:26:20.748Z,16.30
2023-09-13T20:28:48.836Z,16.20
2023-09-13T20:31:20.392Z,16.19
2023-09-13T20:33:49.334Z,16.17
2023-09-13T20:36:18.045Z,16.40
2023-09-13T20:38:45.536Z,16.48
2023-09-13T20:41:12.926Z,16.47
2023-09-13T20:43:39.970Z,16.60
2023-09-13T20:46:07.387Z,16.49
2023-09-13T20:48:35.005Z,16.34
2023-09-13T20:51:06.113Z,16.12
2023-09-13T20:53:34.977Z,16.41
2023-09-13T20:56:02.911Z,16.27
2023-09-13T20:58:33.224Z,16.29
2023-09-13T21:01:03.127Z,16.40
2023-09-13T21:03:32.711Z,16.43
2023-09-13T21:05:59.969Z,16.33
2023-09-13T21:08:27.494Z,16.23
2023-09-13T21:10:55.399Z,16.13
2023-09-13T21:13:22.589Z,15.88
2023-09-13T21:15:53.129Z,15.91
2023-09-13T21:18:21.969Z,15.71
2023-09-13T21:20:49.122Z,15.84
2023-09-13T21:23:19.403Z,15.72
2023-09-13T21:25:46.530Z,15.42
2023-09-13T21:28:15.253Z,15.26
2023-09-13T21:30:45.443Z,15.12
2023-09-13T21:33:12.913Z,15.38
2023-09-13T21:35:42.122Z,15.28
2023-09-13T21:38:10.229Z,15.09
2023-09-13T21:40:38.469Z,14.96
2023-09-13T21:43:05.859Z,15.10
2023-09-13T21:45:33.216Z,15.02
2023-09-13T21:48:00.828Z,14.92
2023-09-13T21:50:29.720Z,14.94
2023-09-13T21:52:56.882Z,14.85
2023-09-13T21:55:23.986Z,14.73
2023-09-13T21:57:51.147Z,14.86
2023-09-13T22:00:18.669Z,14.72
2023-09-13T22:02:47.038Z,14.65
2023-09-13T22:05:23.557Z,14.50
2023-09-13T22:07:51.992Z,14.49
2023-09-13T22:10:20.650Z,14.36
2023-09-13T22:12:53.608Z,14.45
2023-09-13T22:15:22.716Z,14.38
2023-09-13T22:17:51.936Z,14.33
2023-09-13T22:20:20.662Z,14.27
2023-09-13T22:22:47.785Z,14.29
2023-09-13T22:25:18.796Z,14.30
2023-09-13T22:27:46.487Z,14.23
2023-09-13T22:30:14.242Z,14.27
2023-09-13T22:32:41.450Z,14.23
2023-09-13T22:35:08.795Z,14.35
2023-09-13T22:37:36.240Z,14.42
2023-09-13T22:40:04.552Z,14.58
2023-09-13T22:42:31.833Z,14.78
2023-09-13T22:44:58.940Z,14.86
2023-09-13T22:47:26.378Z,14.89
2023-09-13T22:49:53.832Z,14.96
2023-09-13T22:55:10.418Z,14.91
2023-09-13T22:57:51.812Z,14.66
2023-09-13T23:00:19.302Z,14.56
2023-09-13T23:02:46.551Z,14.69
2023-09-13T23:05:13.861Z,14.92
2023-09-13T23:07:40.958Z,14.94
2023-09-13T23:10:08.735Z,15.06
2023-09-13T23:12:36.028Z,15.00
2023-09-13T23:15:06.067Z,15.09
2023-09-13T23:17:33.505Z,15.01
2023-09-13T23:20:11.807Z,14.74
2023-09-13T23:22:39.991Z,14.53
2023-09-13T23:25:07.780Z,14.52
2023-09-13T23:27:36.240Z,14.45
2023-09-13T23:30:05.108Z,14.52
2023-09-13T23:32:33.735Z,14.81
2023-09-13T23:35:01.172Z,14.68
2023-09-13T23:37:31.743Z,14.86
2023-09-13T23:39:59.269Z,14.98
2023-09-13T23:42:26.485Z,15.01
2023-09-13T23:44:54.328Z,14.80
2023-09-13T23:47:21.642Z,14.47
2023-09-13T23:49:49.564Z,14.18
2023-09-13T23:52:16.689Z,14.11
2023-09-13T23:54:45.412Z,14.01
2023-09-13T23:57:14.724Z,14.06
2023-09-13T23:59:42.907Z,14.37
